sensor_id;sensor_type;location;lat;lon;timestamp;pressure;altitude;pressure_sealevel;temperature;humidity
22000;BME280;11164;48.818;2.322;2023-12-20T00:01:19;101205.66;;;11.59;49.90
22000;BME280;11164;48.818;2.322;2023-12-20T00:03:44;101197.34;;;11.60;49.57
22000;BME280;11164;48.818;2.322;2023-12-20T00:06:10;101210.72;;;11.47;50.18
22000;BME280;11164;48.818;2.322;2023-12-20T00:08:36;101205.16;;;11.55;49.90
22000;BME280;11164;48.818;2.322;2023-12-20T00:11:01;101228.16;;;11.66;49.94
22000;BME280;11164;48.818;2.322;2023-12-20T00:13:26;101228.72;;;11.76;49.44
22000;BME280;11164;48.818;2.322;2023-12-20T00:15:51;101216.41;;;11.74;49.27
22000;BME280;11164;48.818;2.322;2023-12-20T00:18:17;101230.00;;;11.80;48.97
22000;BME280;11164;48.818;2.322;2023-12-20T00:20:42;101214.22;;;11.62;48.70
22000;BME280;11164;48.818;2.322;2023-12-20T00:23:08;101236.72;;;11.70;49.13
22000;BME280;11164;48.818;2.322;2023-12-20T00:25:34;101234.78;;;11.63;48.91
22000;BME280;11164;48.818;2.322;2023-12-20T00:28:00;101244.03;;;11.54;48.83
22000;BME280;11164;48.818;2.322;2023-12-20T00:30:25;101247.81;;;11.60;48.62
22000;BME280;11164;48.818;2.322;2023-12-20T00:32:50;101253.31;;;11.52;48.32
22000;BME280;11164;48.818;2.322;2023-12-20T00:35:16;101261.28;;;11.38;48.55
22000;BME280;11164;48.818;2.322;2023-12-20T00:37:42;101257.28;;;11.19;48.50
22000;BME280;11164;48.818;2.322;2023-12-20T00:40:08;101266.28;;;11.56;47.77
22000;BME280;11164;48.818;2.322;2023-12-20T00:42:34;101250.84;;;11.50;47.75
22000;BME280;11164;48.818;2.322;2023-12-20T00:45:00;101252.50;;;11.51;47.58
22000;BME280;11164;48.818;2.322;2023-12-20T00:47:26;101251.31;;;11.39;48.02
22000;BME280;11164;48.818;2.322;2023-12-20T00:49:51;101254.19;;;11.52;47.50
22000;BME280;11164;48.818;2.322;2023-12-20T00:52:17;101251.41;;;11.31;47.84
22000;BME280;11164;48.818;2.322;2023-12-20T00:54:43;101259.06;;;11.12;48.30
22000;BME280;11164;48.818;2.322;2023-12-20T00:57:08;101257.00;;;11.14;47.88
22000;BME280;11164;48.818;2.322;2023-12-20T00:59:34;101255.88;;;11.23;47.50
22000;BME280;11164;48.818;2.322;2023-12-20T01:01:59;101257.00;;;11.14;47.47
22000;BME280;11164;48.818;2.322;2023-12-20T01:04:24;101252.25;;;11.01;47.71
22000;BME280;11164;48.818;2.322;2023-12-20T01:06:50;101256.69;;;10.56;48.35
22000;BME280;11164;48.818;2.322;2023-12-20T01:09:15;101260.94;;;10.74;47.90
22000;BME280;11164;48.818;2.322;2023-12-20T01:11:40;101255.66;;;10.80;47.46
22000;BME280;11164;48.818;2.322;2023-12-20T01:14:05;101255.03;;;10.55;47.98
22000;BME280;11164;48.818;2.322;2023-12-20T01:16:31;101261.22;;;10.64;47.76
22000;BME280;11164;48.818;2.322;2023-12-20T01:18:56;101274.31;;;10.29;48.57
22000;BME280;11164;48.818;2.322;2023-12-20T01:21:21;101283.63;;;10.64;47.63
22000;BME280;11164;48.818;2.322;2023-12-20T01:23:47;101277.81;;;10.76;47.15
22000;BME280;11164;48.818;2.322;2023-12-20T01:26:12;101298.00;;;10.80;47.10
22000;BME280;11164;48.818;2.322;2023-12-20T01:28:37;101293.72;;;10.71;46.95
22000;BME280;11164;48.818;2.322;2023-12-20T01:31:03;101283.56;;;10.73;47.03
22000;BME280;11164;48.818;2.322;2023-12-20T01:33:29;101284.09;;;10.68;47.00
22000;BME280;11164;48.818;2.322;2023-12-20T01:35:54;101276.13;;;10.52;46.98
22000;BME280;11164;48.818;2.322;2023-12-20T01:38:19;101295.72;;;10.45;47.07
22000;BME280;11164;48.818;2.322;2023-12-20T01:40:45;101289.31;;;10.46;47.17
22000;BME280;11164;48.818;2.322;2023-12-20T01:43:11;101275.09;;;10.53;47.05
22000;BME280;11164;48.818;2.322;2023-12-20T01:45:37;101289.50;;;10.45;47.12
22000;BME280;11164;48.818;2.322;2023-12-20T01:48:04;101306.56;;;10.37;47.30
22000;BME280;11164;48.818;2.322;2023-12-20T01:50:31;101303.69;;;10.16;47.62
22000;BME280;11164;48.818;2.322;2023-12-20T01:52:57;101294.31;;;10.11;47.37
22000;BME280;11164;48.818;2.322;2023-12-20T01:55:25;101299.56;;;10.28;47.31
22000;BME280;11164;48.818;2.322;2023-12-20T01:57:51;101312.69;;;10.31;47.17
22000;BME280;11164;48.818;2.322;2023-12-20T02:00:17;101306.03;;;10.42;46.93
22000;BME280;11164;48.818;2.322;2023-12-20T02:02:44;101302.13;;;10.21;47.18
22000;BME280;11164;48.818;2.322;2023-12-20T02:05:10;101312.25;;;10.19;47.41
22000;BME280;11164;48.818;2.322;2023-12-20T02:07:36;101297.91;;;10.27;47.14
22000;BME280;11164;48.818;2.322;2023-12-20T02:10:02;101304.25;;;10.34;46.93
22000;BME280;11164;48.818;2.322;2023-12-20T02:12:29;101328.19;;;10.52;46.74
22000;BME280;11164;48.818;2.322;2023-12-20T02:14:55;101319.16;;;10.45;47.02
22000;BME280;11164;48.818;2.322;2023-12-20T02:17:21;101314.94;;;10.42;46.97
22000;BME280;11164;48.818;2.322;2023-12-20T02:19:47;101326.31;;;10.61;46.74
22000;BME280;11164;48.818;2.322;2023-12-20T02:22:12;101331.16;;;10.65;46.60
22000;BME280;11164;48.818;2.322;2023-12-20T02:24:38;101329.03;;;10.29;47.48
22000;BME280;11164;48.818;2.322;2023-12-20T02:27:06;101333.53;;;10.37;47.51
22000;BME280;11164;48.818;2.322;2023-12-20T02:29:32;101336.28;;;10.52;47.07
22000;BME280;11164;48.818;2.322;2023-12-20T02:31:58;101321.50;;;10.48;46.77
22000;BME280;11164;48.818;2.322;2023-12-20T02:34:23;101328.13;;;10.37;47.12
22000;BME280;11164;48.818;2.322;2023-12-20T02:36:48;101334.59;;;10.51;46.71
22000;BME280;11164;48.818;2.322;2023-12-20T02:39:14;101341.69;;;10.29;47.39
22000;BME280;11164;48.818;2.322;2023-12-20T02:41:39;101336.69;;;10.41;47.17
22000;BME280;11164;48.818;2.322;2023-12-20T02:44:04;101333.66;;;10.44;46.86
22000;BME280;11164;48.818;2.322;2023-12-20T02:46:30;101342.59;;;10.44;47.01
22000;BME280;11164;48.818;2.322;2023-12-20T02:48:55;101345.22;;;10.29;47.18
22000;BME280;11164;48.818;2.322;2023-12-20T02:51:20;101350.00;;;10.42;46.96
22000;BME280;11164;48.818;2.322;2023-12-20T02:53:46;101346.78;;;10.47;46.83
22000;BME280;11164;48.818;2.322;2023-12-20T02:56:11;101336.41;;;10.04;47.75
22000;BME280;11164;48.818;2.322;2023-12-20T02:58:39;101337.09;;;10.06;47.59
22000;BME280;11164;48.818;2.322;2023-12-20T03:01:05;101344.69;;;10.34;46.68
22000;BME280;11164;48.818;2.322;2023-12-20T03:03:30;101339.22;;;10.42;46.70
22000;BME280;11164;48.818;2.322;2023-12-20T03:05:55;101335.88;;;10.40;46.41
22000;BME280;11164;48.818;2.322;2023-12-20T03:08:20;101330.34;;;10.10;46.58
22000;BME280;11164;48.818;2.322;2023-12-20T03:10:47;101352.41;;;10.37;46.40
22000;BME280;11164;48.818;2.322;2023-12-20T03:13:12;101354.59;;;10.34;46.52
22000;BME280;11164;48.818;2.322;2023-12-20T03:15:38;101354.44;;;10.35;46.47
22000;BME280;11164;48.818;2.322;2023-12-20T03:18:03;101346.28;;;10.43;45.97
22000;BME280;11164;48.818;2.322;2023-12-20T03:20:29;101343.03;;;10.25;46.41
22000;BME280;11164;48.818;2.322;2023-12-20T03:22:58;101340.03;;;10.20;46.09
22000;BME280;11164;48.818;2.322;2023-12-20T03:25:23;101343.84;;;10.02;46.77
22000;BME280;11164;48.818;2.322;2023-12-20T03:27:48;101343.47;;;10.13;46.59
22000;BME280;11164;48.818;2.322;2023-12-20T03:30:14;101341.91;;;9.88;46.94
22000;BME280;11164;48.818;2.322;2023-12-20T03:32:39;101349.78;;;9.98;47.03
22000;BME280;11164;48.818;2.322;2023-12-20T03:35:06;101339.63;;;10.08;46.51
22000;BME280;11164;48.818;2.322;2023-12-20T03:37:32;101336.66;;;9.94;46.83
22000;BME280;11164;48.818;2.322;2023-12-20T03:39:58;101347.50;;;10.09;46.37
22000;BME280;11164;48.818;2.322;2023-12-20T03:42:25;101344.47;;;10.12;46.28
22000;BME280;11164;48.818;2.322;2023-12-20T03:44:51;101346.78;;;10.24;46.14
22000;BME280;11164;48.818;2.322;2023-12-20T03:47:17;101335.72;;;10.10;46.05
22000;BME280;11164;48.818;2.322;2023-12-20T03:49:42;101353.63;;;10.03;46.19
22000;BME280;11164;48.818;2.322;2023-12-20T03:52:07;101351.72;;;10.12;46.04
22000;BME280;11164;48.818;2.322;2023-12-20T03:54:34;101358.59;;;10.15;45.94
22000;BME280;11164;48.818;2.322;2023-12-20T03:57:00;101357.50;;;10.01;46.06
22000;BME280;11164;48.818;2.322;2023-12-20T03:59:25;101355.34;;;9.96;46.10
22000;BME280;11164;48.818;2.322;2023-12-20T04:01:51;101361.25;;;9.91;46.28
22000;BME280;11164;48.818;2.322;2023-12-20T04:04:16;101355.16;;;9.98;45.95
22000;BME280;11164;48.818;2.322;2023-12-20T04:06:41;101361.91;;;9.93;46.06
22000;BME280;11164;48.818;2.322;2023-12-20T04:09:07;101332.72;;;9.66;46.19
22000;BME280;11164;48.818;2.322;2023-12-20T04:11:34;101354.44;;;9.64;46.35
22000;BME280;11164;48.818;2.322;2023-12-20T04:13:59;101349.13;;;9.56;46.73
22000;BME280;11164;48.818;2.322;2023-12-20T04:16:25;101351.81;;;9.56;46.81
22000;BME280;11164;48.818;2.322;2023-12-20T04:18:51;101343.34;;;9.59;46.76
22000;BME280;11164;48.818;2.322;2023-12-20T04:21:16;101351.25;;;9.61;46.66
22000;BME280;11164;48.818;2.322;2023-12-20T04:23:41;101351.09;;;9.62;46.35
22000;BME280;11164;48.818;2.322;2023-12-20T04:26:07;101348.97;;;9.49;46.59
22000;BME280;11164;48.818;2.322;2023-12-20T04:28:32;101349.84;;;9.25;47.28
22000;BME280;11164;48.818;2.322;2023-12-20T04:30:57;101361.28;;;9.44;46.92
22000;BME280;11164;48.818;2.322;2023-12-20T04:33:23;101355.03;;;9.43;46.72
22000;BME280;11164;48.818;2.322;2023-12-20T04:35:48;101362.56;;;9.56;46.33
22000;BME280;11164;48.818;2.322;2023-12-20T04:38:13;101371.31;;;9.58;46.29
22000;BME280;11164;48.818;2.322;2023-12-20T04:40:39;101362.50;;;9.72;46.04
22000;BME280;11164;48.818;2.322;2023-12-20T04:43:06;101371.50;;;9.40;46.45
22000;BME280;11164;48.818;2.322;2023-12-20T04:45:31;101354.56;;;9.23;46.97
22000;BME280;11164;48.818;2.322;2023-12-20T04:47:56;101362.63;;;9.15;47.41
22000;BME280;11164;48.818;2.322;2023-12-20T04:50:22;101351.00;;;9.31;46.94
22000;BME280;11164;48.818;2.322;2023-12-20T04:52:47;101364.66;;;9.05;47.69
22000;BME280;11164;48.818;2.322;2023-12-20T04:55:12;101365.31;;;9.07;47.74
22000;BME280;11164;48.818;2.322;2023-12-20T04:57:38;101366.69;;;9.11;47.29
22000;BME280;11164;48.818;2.322;2023-12-20T05:00:05;101373.38;;;9.23;47.16
22000;BME280;11164;48.818;2.322;2023-12-20T05:02:30;101361.63;;;9.16;46.98
22000;BME280;11164;48.818;2.322;2023-12-20T05:04:55;101361.63;;;9.32;46.59
22000;BME280;11164;48.818;2.322;2023-12-20T05:07:21;101365.16;;;9.00;47.60
22000;BME280;11164;48.818;2.322;2023-12-20T05:09:47;101375.41;;;9.37;46.69
22000;BME280;11164;48.818;2.322;2023-12-20T05:12:12;101362.78;;;9.22;46.94
22000;BME280;11164;48.818;2.322;2023-12-20T05:14:37;101359.22;;;9.29;46.70
22000;BME280;11164;48.818;2.322;2023-12-20T05:17:03;101371.69;;;9.30;46.82
22000;BME280;11164;48.818;2.322;2023-12-20T05:19:28;101365.28;;;9.40;46.64
22000;BME280;11164;48.818;2.322;2023-12-20T05:21:54;101363.25;;;9.42;46.49
22000;BME280;11164;48.818;2.322;2023-12-20T05:24:19;101372.00;;;9.52;46.35
22000;BME280;11164;48.818;2.322;2023-12-20T05:26:44;101363.09;;;9.43;46.39
22000;BME280;11164;48.818;2.322;2023-12-20T05:29:10;101365.28;;;9.40;46.67
22000;BME280;11164;48.818;2.322;2023-12-20T05:31:35;101363.06;;;9.60;45.99
22000;BME280;11164;48.818;2.322;2023-12-20T05:34:00;101363.81;;;9.37;46.52
22000;BME280;11164;48.818;2.322;2023-12-20T05:36:26;101368.16;;;9.38;46.27
22000;BME280;11164;48.818;2.322;2023-12-20T05:38:51;101375.88;;;9.58;45.97
22000;BME280;11164;48.818;2.322;2023-12-20T05:41:16;101368.78;;;9.65;45.95
22000;BME280;11164;48.818;2.322;2023-12-20T05:43:41;101375.72;;;9.34;46.62
22000;BME280;11164;48.818;2.322;2023-12-20T05:46:07;101381.13;;;9.26;46.79
22000;BME280;11164;48.818;2.322;2023-12-20T05:48:32;101376.56;;;9.18;47.00
22000;BME280;11164;48.818;2.322;2023-12-20T05:50:57;101387.34;;;9.27;46.90
22000;BME280;11164;48.818;2.322;2023-12-20T05:53:23;101383.28;;;9.31;46.47
22000;BME280;11164;48.818;2.322;2023-12-20T05:55:48;101393.41;;;9.37;46.57
22000;BME280;11164;48.818;2.322;2023-12-20T05:58:13;101392.06;;;9.16;46.90
22000;BME280;11164;48.818;2.322;2023-12-20T06:00:39;101394.56;;;9.26;46.88
22000;BME280;11164;48.818;2.322;2023-12-20T06:03:04;101389.53;;;9.23;46.75
22000;BME280;11164;48.818;2.322;2023-12-20T06:05:30;101397.44;;;9.25;46.79
22000;BME280;11164;48.818;2.322;2023-12-20T06:07:56;101405.84;;;9.13;46.90
22000;BME280;11164;48.818;2.322;2023-12-20T06:10:26;101408.19;;;9.08;47.06
22000;BME280;11164;48.818;2.322;2023-12-20T06:12:52;101413.75;;;9.07;47.09
22000;BME280;11164;48.818;2.322;2023-12-20T06:15:17;101412.06;;;9.06;47.19
22000;BME280;11164;48.818;2.322;2023-12-20T06:17:43;101418.47;;;9.21;46.79
22000;BME280;11164;48.818;2.322;2023-12-20T06:20:09;101398.63;;;9.06;47.07
22000;BME280;11164;48.818;2.322;2023-12-20T06:22:35;101397.59;;;9.15;46.78
22000;BME280;11164;48.818;2.322;2023-12-20T06:25:01;101406.88;;;9.04;47.22
22000;BME280;11164;48.818;2.322;2023-12-20T06:27:28;101411.72;;;9.09;47.10
22000;BME280;11164;48.818;2.322;2023-12-20T06:29:53;101403.16;;;9.13;46.85
22000;BME280;11164;48.818;2.322;2023-12-20T06:32:18;101404.50;;;9.09;47.16
22000;BME280;11164;48.818;2.322;2023-12-20T06:34:44;101408.53;;;9.22;46.68
22000;BME280;11164;48.818;2.322;2023-12-20T06:37:10;101413.06;;;9.05;47.22
22000;BME280;11164;48.818;2.322;2023-12-20T06:39:35;101409.19;;;9.15;46.98
22000;BME280;11164;48.818;2.322;2023-12-20T06:42:01;101402.81;;;9.16;47.21
22000;BME280;11164;48.818;2.322;2023-12-20T06:44:26;101393.22;;;9.22;46.70
22000;BME280;11164;48.818;2.322;2023-12-20T06:46:52;101392.56;;;9.04;46.96
22000;BME280;11164;48.818;2.322;2023-12-20T06:49:17;101406.53;;;9.07;47.06
22000;BME280;11164;48.818;2.322;2023-12-20T06:51:43;101413.75;;;9.15;46.74
22000;BME280;11164;48.818;2.322;2023-12-20T06:54:09;101418.63;;;9.03;47.09
22000;BME280;11164;48.818;2.322;2023-12-20T06:56:34;101382.66;;;9.12;46.70
22000;BME280;11164;48.818;2.322;2023-12-20T06:58:59;101407.66;;;9.29;46.77
22000;BME280;11164;48.818;2.322;2023-12-20T07:01:25;101386.00;;;9.14;46.42
22000;BME280;11164;48.818;2.322;2023-12-20T07:03:50;101407.38;;;9.16;46.82
22000;BME280;11164;48.818;2.322;2023-12-20T07:06:15;101403.16;;;9.13;46.90
22000;BME280;11164;48.818;2.322;2023-12-20T07:08:42;101410.72;;;9.02;47.43
22000;BME280;11164;48.818;2.322;2023-12-20T07:11:07;101416.78;;;8.95;47.49
22000;BME280;11164;48.818;2.322;2023-12-20T07:13:33;101421.16;;;8.88;47.42
22000;BME280;11164;48.818;2.322;2023-12-20T07:16:00;101420.66;;;9.09;46.99
22000;BME280;11164;48.818;2.322;2023-12-20T07:18:25;101421.81;;;9.31;46.57
22000;BME280;11164;48.818;2.322;2023-12-20T07:20:51;101427.03;;;9.25;46.61
22000;BME280;11164;48.818;2.322;2023-12-20T07:23:16;101423.34;;;9.09;47.00
22000;BME280;11164;48.818;2.322;2023-12-20T07:25:42;101434.28;;;9.16;47.00
22000;BME280;11164;48.818;2.322;2023-12-20T07:28:07;101424.50;;;9.07;47.38
22000;BME280;11164;48.818;2.322;2023-12-20T07:30:32;101430.56;;;9.09;47.15
22000;BME280;11164;48.818;2.322;2023-12-20T07:32:58;101430.88;;;9.14;46.91
22000;BME280;11164;48.818;2.322;2023-12-20T07:35:24;101440.81;;;9.22;46.73
22000;BME280;11164;48.818;2.322;2023-12-20T07:37:50;101442.69;;;9.21;46.78
22000;BME280;11164;48.818;2.322;2023-12-20T07:40:15;101421.84;;;8.98;46.74
22000;BME280;11164;48.818;2.322;2023-12-20T07:42:42;101439.97;;;8.96;47.43
22000;BME280;11164;48.818;2.322;2023-12-20T07:45:08;101447.53;;;8.85;47.80
22000;BME280;11164;48.818;2.322;2023-12-20T07:47:34;101458.66;;;9.06;47.29
22000;BME280;11164;48.818;2.322;2023-12-20T07:49:59;101441.84;;;9.04;47.05
22000;BME280;11164;48.818;2.322;2023-12-20T07:52:25;101447.72;;;9.08;47.04
22000;BME280;11164;48.818;2.322;2023-12-20T07:54:52;101440.47;;;9.00;47.45
22000;BME280;11164;48.818;2.322;2023-12-20T07:57:17;101449.25;;;9.02;47.58
22000;BME280;11164;48.818;2.322;2023-12-20T07:59:43;101453.94;;;9.08;47.12
22000;BME280;11164;48.818;2.322;2023-12-20T08:02:09;101458.81;;;9.13;46.89
22000;BME280;11164;48.818;2.322;2023-12-20T08:04:34;101453.09;;;9.08;47.30
22000;BME280;11164;48.818;2.322;2023-12-20T08:07:00;101453.44;;;9.05;47.56
22000;BME280;11164;48.818;2.322;2023-12-20T08:09:31;101457.31;;;9.02;47.53
22000;BME280;11164;48.818;2.322;2023-12-20T08:12:01;101440.00;;;9.46;46.65
22000;BME280;11164;48.818;2.322;2023-12-20T08:14:27;101436.09;;;9.40;46.59
22000;BME280;11164;48.818;2.322;2023-12-20T08:16:52;101449.44;;;9.33;46.94
22000;BME280;11164;48.818;2.322;2023-12-20T08:19:18;101444.56;;;9.37;46.80
22000;BME280;11164;48.818;2.322;2023-12-20T08:21:43;101449.06;;;9.28;47.14
22000;BME280;11164;48.818;2.322;2023-12-20T08:24:08;101442.34;;;9.41;46.74
22000;BME280;11164;48.818;2.322;2023-12-20T08:26:34;101445.88;;;9.41;47.00
22000;BME280;11164;48.818;2.322;2023-12-20T08:28:59;101446.69;;;9.66;46.46
22000;BME280;11164;48.818;2.322;2023-12-20T08:31:24;101451.38;;;9.72;46.29
22000;BME280;11164;48.818;2.322;2023-12-20T08:33:51;101424.81;;;9.61;46.26
22000;BME280;11164;48.818;2.322;2023-12-20T08:36:19;101439.44;;;9.67;46.53
22000;BME280;11164;48.818;2.322;2023-12-20T08:38:47;101439.63;;;9.65;46.43
22000;BME280;11164;48.818;2.322;2023-12-20T08:41:12;101428.50;;;9.68;46.51
22000;BME280;11164;48.818;2.322;2023-12-20T08:43:37;101428.19;;;9.47;46.96
22000;BME280;11164;48.818;2.322;2023-12-20T08:46:05;101441.97;;;9.52;46.87
22000;BME280;11164;48.818;2.322;2023-12-20T08:48:30;101435.44;;;9.63;46.84
22000;BME280;11164;48.818;2.322;2023-12-20T08:50:56;101433.00;;;9.84;46.21
22000;BME280;11164;48.818;2.322;2023-12-20T08:53:21;101443.78;;;9.84;46.31
22000;BME280;11164;48.818;2.322;2023-12-20T08:55:47;101462.31;;;9.79;46.51
22000;BME280;11164;48.818;2.322;2023-12-20T08:58:12;101450.34;;;9.82;46.48
22000;BME280;11164;48.818;2.322;2023-12-20T09:00:38;101455.78;;;9.65;46.98
22000;BME280;11164;48.818;2.322;2023-12-20T09:03:04;101460.16;;;9.66;47.07
22000;BME280;11164;48.818;2.322;2023-12-20T09:05:30;101462.47;;;9.86;46.68
22000;BME280;11164;48.818;2.322;2023-12-20T09:07:55;101462.84;;;9.66;47.03
22000;BME280;11164;48.818;2.322;2023-12-20T09:10:21;101463.53;;;9.60;47.49
22000;BME280;11164;48.818;2.322;2023-12-20T09:12:54;101439.97;;;9.54;47.16
22000;BME280;11164;48.818;2.322;2023-12-20T09:15:25;101441.66;;;9.55;47.52
22000;BME280;11164;48.818;2.322;2023-12-20T09:17:50;101448.97;;;9.94;47.22
22000;BME280;11164;48.818;2.322;2023-12-20T09:20:15;101451.34;;;9.89;47.49
22000;BME280;11164;48.818;2.322;2023-12-20T09:22:41;101449.13;;;10.32;46.84
22000;BME280;11164;48.818;2.322;2023-12-20T09:25:07;101448.31;;;10.23;47.41
22000;BME280;11164;48.818;2.322;2023-12-20T09:27:33;101457.63;;;10.60;46.58
22000;BME280;11164;48.818;2.322;2023-12-20T09:29:58;101451.03;;;10.55;46.80
22000;BME280;11164;48.818;2.322;2023-12-20T09:32:23;101439.75;;;10.51;47.01
22000;BME280;11164;48.818;2.322;2023-12-20T09:34:49;101438.34;;;10.95;46.29
22000;BME280;11164;48.818;2.322;2023-12-20T09:37:14;101439.88;;;10.66;46.67
22000;BME280;11164;48.818;2.322;2023-12-20T09:39:39;101445.88;;;10.76;46.37
22000;BME280;11164;48.818;2.322;2023-12-20T09:42:06;101449.09;;;10.72;46.71
22000;BME280;11164;48.818;2.322;2023-12-20T09:44:32;101448.28;;;10.71;46.62
22000;BME280;11164;48.818;2.322;2023-12-20T09:47:02;101449.59;;;10.75;46.26
22000;BME280;11164;48.818;2.322;2023-12-20T09:49:29;101444.31;;;10.50;47.06
22000;BME280;11164;48.818;2.322;2023-12-20T09:51:55;101453.25;;;11.05;45.96
22000;BME280;11164;48.818;2.322;2023-12-20T09:54:22;101460.28;;;10.92;46.58
22000;BME280;11164;48.818;2.322;2023-12-20T09:56:49;101456.94;;;10.90;46.65
22000;BME280;11164;48.818;2.322;2023-12-20T09:59:14;101452.28;;;10.75;46.75
22000;BME280;11164;48.818;2.322;2023-12-20T10:01:41;101473.28;;;11.11;46.15
22000;BME280;11164;48.818;2.322;2023-12-20T10:04:08;101459.63;;;10.90;46.76
22000;BME280;11164;48.818;2.322;2023-12-20T10:06:40;101457.09;;;10.88;46.85
22000;BME280;11164;48.818;2.322;2023-12-20T10:09:05;101464.31;;;11.34;46.24
22000;BME280;11164;48.818;2.322;2023-12-20T10:11:31;101467.47;;;11.22;46.16
22000;BME280;11164;48.818;2.322;2023-12-20T10:14:00;101464.88;;;11.06;46.71
22000;BME280;11164;48.818;2.322;2023-12-20T10:16:29;101466.97;;;11.42;46.27
22000;BME280;11164;48.818;2.322;2023-12-20T10:18:55;101459.66;;;11.28;46.57
22000;BME280;11164;48.818;2.322;2023-12-20T10:21:22;101467.25;;;11.24;46.61
22000;BME280;11164;48.818;2.322;2023-12-20T10:23:50;101458.09;;;11.10;46.78
22000;BME280;11164;48.818;2.322;2023-12-20T10:26:22;101466.75;;;11.05;45.60
22000;BME280;11164;48.818;2.322;2023-12-20T10:28:54;101443.19;;;11.37;45.58
22000;BME280;11164;48.818;2.322;2023-12-20T10:31:33;101445.50;;;11.93;44.97
22000;BME280;11164;48.818;2.322;2023-12-20T10:34:02;101426.59;;;12.08;45.18
22000;BME280;11164;48.818;2.322;2023-12-20T10:36:30;101418.19;;;12.03;45.08
22000;BME280;11164;48.818;2.322;2023-12-20T10:38:56;101404.88;;;12.02;45.16
22000;BME280;11164;48.818;2.322;2023-12-20T10:41:30;101420.31;;;11.63;45.17
22000;BME280;11164;48.818;2.322;2023-12-20T10:44:01;101423.84;;;11.49;45.72
22000;BME280;11164;48.818;2.322;2023-12-20T10:46:27;101423.50;;;11.67;45.98
22000;BME280;11164;48.818;2.322;2023-12-20T10:48:54;101434.25;;;11.75;45.85
22000;BME280;11164;48.818;2.322;2023-12-20T10:51:20;101436.72;;;11.61;46.27
22000;BME280;11164;48.818;2.322;2023-12-20T10:53:47;101430.69;;;11.89;45.61
22000;BME280;11164;48.818;2.322;2023-12-20T10:56:16;101425.19;;;11.97;45.46
22000;BME280;11164;48.818;2.322;2023-12-20T10:58:43;101421.03;;;12.31;44.82
22000;BME280;11164;48.818;2.322;2023-12-20T11:01:08;101417.22;;;12.62;44.53
22000;BME280;11164;48.818;2.322;2023-12-20T11:03:35;101404.28;;;12.21;45.21
22000;BME280;11164;48.818;2.322;2023-12-20T11:09:28;101393.06;;;11.88;44.41
22000;BME280;11164;48.818;2.322;2023-12-20T11:12:10;101406.06;;;11.69;45.87
22000;BME280;11164;48.818;2.322;2023-12-20T11:14:49;101391.34;;;12.02;45.20
22000;BME280;11164;48.818;2.322;2023-12-20T11:17:15;101384.16;;;12.09;45.65
22000;BME280;11164;48.818;2.322;2023-12-20T11:22:19;101384.59;;;12.49;44.81
22000;BME280;11164;48.818;2.322;2023-12-20T11:24:45;101377.28;;;12.06;45.91
22000;BME280;11164;48.818;2.322;2023-12-20T11:27:12;101385.78;;;12.61;44.99
22000;BME280;11164;48.818;2.322;2023-12-20T11:29:38;101367.66;;;12.83;44.49
22000;BME280;11164;48.818;2.322;2023-12-20T11:34:51;101373.66;;;12.79;44.97
22000;BME280;11164;48.818;2.322;2023-12-20T11:37:19;101373.22;;;12.53;45.16
22000;BME280;11164;48.818;2.322;2023-12-20T11:39:44;101375.03;;;12.10;45.97
22000;BME280;11164;48.818;2.322;2023-12-20T11:42:10;101368.19;;;11.92;46.72
22000;BME280;11164;48.818;2.322;2023-12-20T11:44:36;101360.72;;;12.31;45.95
22000;BME280;11164;48.818;2.322;2023-12-20T11:47:01;101362.41;;;12.53;46.09
22000;BME280;11164;48.818;2.322;2023-12-20T11:49:27;101356.50;;;12.65;45.64
22000;BME280;11164;48.818;2.322;2023-12-20T11:51:54;101353.25;;;12.76;45.74
22000;BME280;11164;48.818;2.322;2023-12-20T11:54:20;101367.94;;;12.88;45.66
22000;BME280;11164;48.818;2.322;2023-12-20T11:56:46;101369.44;;;12.48;46.05
22000;BME280;11164;48.818;2.322;2023-12-20T11:59:11;101379.13;;;12.42;46.35
22000;BME280;11164;48.818;2.322;2023-12-20T12:01:37;101372.69;;;12.22;46.51
22000;BME280;11164;48.818;2.322;2023-12-20T12:04:03;101343.66;;;12.52;46.17
22000;BME280;11164;48.818;2.322;2023-12-20T12:06:29;101366.84;;;12.61;45.73
22000;BME280;11164;48.818;2.322;2023-12-20T12:08:54;101370.66;;;12.67;46.03
22000;BME280;11164;48.818;2.322;2023-12-20T12:11:21;101371.22;;;12.41;46.10
22000;BME280;11164;48.818;2.322;2023-12-20T12:13:46;101364.38;;;12.23;45.83
22000;BME280;11164;48.818;2.322;2023-12-20T12:16:11;101366.66;;;12.41;46.30
22000;BME280;11164;48.818;2.322;2023-12-20T12:18:37;101375.56;;;12.56;45.74
22000;BME280;11164;48.818;2.322;2023-12-20T12:21:05;101366.69;;;12.26;46.09
22000;BME280;11164;48.818;2.322;2023-12-20T12:23:31;101361.59;;;12.16;46.10
22000;BME280;11164;48.818;2.322;2023-12-20T12:25:56;101357.00;;;11.95;46.41
22000;BME280;11164;48.818;2.322;2023-12-20T12:28:26;101348.47;;;11.98;45.75
22000;BME280;11164;48.818;2.322;2023-12-20T12:30:57;101347.56;;;11.47;46.52
22000;BME280;11164;48.818;2.322;2023-12-20T12:33:24;101360.81;;;11.71;46.29
22000;BME280;11164;48.818;2.322;2023-12-20T12:35:50;101348.97;;;11.87;46.72
22000;BME280;11164;48.818;2.322;2023-12-20T12:38:15;101342.81;;;11.93;46.47
22000;BME280;11164;48.818;2.322;2023-12-20T12:40:43;101330.63;;;12.19;45.83
22000;BME280;11164;48.818;2.322;2023-12-20T12:43:09;101327.56;;;12.44;45.68
22000;BME280;11164;48.818;2.322;2023-12-20T12:45:35;101326.84;;;11.98;46.11
22000;BME280;11164;48.818;2.322;2023-12-20T12:48:01;101315.50;;;11.88;46.57
22000;BME280;11164;48.818;2.322;2023-12-20T12:50:26;101308.56;;;12.15;46.01
22000;BME280;11164;48.818;2.322;2023-12-20T12:52:54;101301.19;;;12.52;45.48
22000;BME280;11164;48.818;2.322;2023-12-20T12:55:19;101306.22;;;12.77;45.41
22000;BME280;11164;48.818;2.322;2023-12-20T12:57:44;101303.09;;;13.02;44.97